sensor_id;sensor_type;location;lat;lon;timestamp;P1;durP1;ratioP1;P2;durP2;ratioP2
3297;SDS011;1661;53.572;10.174;2023-12-20T00:00:59;21.73;;;2.50;;
3297;SDS011;1661;53.572;10.174;2023-12-20T00:03:26;11.43;;;2.57;;
3297;SDS011;1661;53.572;10.174;2023-12-20T00:05:53;23.20;;;4.77;;
3297;SDS011;1661;53.572;10.174;2023-12-20T00:08:21;18.40;;;3.50;;
3297;SDS011;1661;53.572;10.174;2023-12-20T00:10:48;12.13;;;3.87;;
3297;SDS011;1661;53.572;10.174;2023-12-20T00:13:15;25.33;;;3.70;;
3297;SDS011;1661;53.572;10.174;2023-12-20T00:15:42;12.13;;;2.80;;
3297;SDS011;1661;53.572;10.174;2023-12-20T00:18:08;8.40;;;3.60;;
3297;SDS011;1661;53.572;10.174;2023-12-20T00:20:35;17.93;;;3.70;;
3297;SDS011;1661;53.572;10.174;2023-12-20T00:23:02;9.43;;;3.37;;
3297;SDS011;1661;53.572;10.174;2023-12-20T00:25:30;21.83;;;3.43;;
3297;SDS011;1661;53.572;10.174;2023-12-20T00:28:00;15.67;;;3.30;;
3297;SDS011;1661;53.572;10.174;2023-12-20T00:30:28;10.10;;;3.00;;
3297;SDS011;1661;53.572;10.174;2023-12-20T00:32:55;22.87;;;3.60;;
3297;SDS011;1661;53.572;10.174;2023-12-20T00:35:22;10.83;;;2.33;;
3297;SDS011;1661;53.572;10.174;2023-12-20T00:37:48;8.63;;;3.67;;
3297;SDS011;1661;53.572;10.174;2023-12-20T00:40:15;11.80;;;3.10;;
3297;SDS011;1661;53.572;10.174;2023-12-20T00:42:43;18.37;;;2.87;;
3297;SDS011;1661;53.572;10.174;2023-12-20T00:45:11;16.40;;;3.43;;
3297;SDS011;1661;53.572;10.174;2023-12-20T00:47:39;11.87;;;2.87;;
3297;SDS011;1661;53.572;10.174;2023-12-20T00:50:06;9.20;;;2.80;;
3297;SDS011;1661;53.572;10.174;2023-12-20T00:52:34;8.33;;;3.57;;
3297;SDS011;1661;53.572;10.174;2023-12-20T00:55:01;12.10;;;3.50;;
3297;SDS011;1661;53.572;10.174;2023-12-20T00:57:29;19.17;;;3.40;;
3297;SDS011;1661;53.572;10.174;2023-12-20T00:59:57;10.20;;;2.90;;
3297;SDS011;1661;53.572;10.174;2023-12-20T01:02:24;15.10;;;4.30;;
3297;SDS011;1661;53.572;10.174;2023-12-20T01:04:51;14.63;;;4.73;;
3297;SDS011;1661;53.572;10.174;2023-12-20T01:07:18;20.90;;;4.03;;
3297;SDS011;1661;53.572;10.174;2023-12-20T01:09:44;17.40;;;2.87;;
3297;SDS011;1661;53.572;10.174;2023-12-20T01:12:11;14.93;;;3.20;;
3297;SDS011;1661;53.572;10.174;2023-12-20T01:14:38;11.30;;;2.97;;
3297;SDS011;1661;53.572;10.174;2023-12-20T01:17:06;27.87;;;5.67;;
3297;SDS011;1661;53.572;10.174;2023-12-20T01:19:33;16.93;;;3.67;;
3297;SDS011;1661;53.572;10.174;2023-12-20T01:22:00;18.67;;;3.10;;
3297;SDS011;1661;53.572;10.174;2023-12-20T01:24:26;14.30;;;3.20;;
3297;SDS011;1661;53.572;10.174;2023-12-20T01:26:53;14.47;;;4.10;;
3297;SDS011;1661;53.572;10.174;2023-12-20T01:29:20;19.97;;;3.10;;
3297;SDS011;1661;53.572;10.174;2023-12-20T01:31:47;17.97;;;3.10;;
3297;SDS011;1661;53.572;10.174;2023-12-20T01:34:15;13.73;;;4.37;;
3297;SDS011;1661;53.572;10.174;2023-12-20T01:36:43;17.00;;;3.77;;
3297;SDS011;1661;53.572;10.174;2023-12-20T01:39:10;15.57;;;2.73;;
3297;SDS011;1661;53.572;10.174;2023-12-20T01:41:37;23.00;;;4.10;;
3297;SDS011;1661;53.572;10.174;2023-12-20T01:44:04;19.20;;;3.67;;
3297;SDS011;1661;53.572;10.174;2023-12-20T01:46:30;10.20;;;3.53;;
3297;SDS011;1661;53.572;10.174;2023-12-20T01:48:57;20.70;;;3.27;;
3297;SDS011;1661;53.572;10.174;2023-12-20T01:51:26;13.40;;;2.87;;
3297;SDS011;1661;53.572;10.174;2023-12-20T01:53:53;17.63;;;3.67;;
3297;SDS011;1661;53.572;10.174;2023-12-20T01:56:21;27.67;;;3.73;;
3297;SDS011;1661;53.572;10.174;2023-12-20T01:58:48;5.67;;;2.80;;
3297;SDS011;1661;53.572;10.174;2023-12-20T02:01:15;14.20;;;3.20;;
3297;SDS011;1661;53.572;10.174;2023-12-20T02:03:42;25.40;;;3.57;;
3297;SDS011;1661;53.572;10.174;2023-12-20T02:06:09;14.47;;;2.97;;
3297;SDS011;1661;53.572;10.174;2023-12-20T02:08:37;10.90;;;2.97;;
3297;SDS011;1661;53.572;10.174;2023-12-20T02:11:04;23.40;;;4.63;;
3297;SDS011;1661;53.572;10.174;2023-12-20T02:13:31;22.47;;;4.07;;
3297;SDS011;1661;53.572;10.174;2023-12-20T02:15:58;21.53;;;4.83;;
3297;SDS011;1661;53.572;10.174;2023-12-20T02:18:25;16.13;;;3.60;;
3297;SDS011;1661;53.572;10.174;2023-12-20T02:20:52;11.30;;;2.50;;
3297;SDS011;1661;53.572;10.174;2023-12-20T02:23:21;22.90;;;4.10;;
3297;SDS011;1661;53.572;10.174;2023-12-20T02:25:47;15.60;;;3.60;;
3297;SDS011;1661;53.572;10.174;2023-12-20T02:28:14;33.47;;;4.70;;
3297;SDS011;1661;53.572;10.174;2023-12-20T02:30:41;21.07;;;4.73;;
3297;SDS011;1661;53.572;10.174;2023-12-20T02:33:08;13.87;;;3.57;;
3297;SDS011;1661;53.572;10.174;2023-12-20T02:35:38;14.23;;;3.53;;
3297;SDS011;1661;53.572;10.174;2023-12-20T02:38:04;11.13;;;3.53;;
3297;SDS011;1661;53.572;10.174;2023-12-20T02:40:33;17.60;;;4.97;;
3297;SDS011;1661;53.572;10.174;2023-12-20T02:42:59;14.90;;;3.53;;
3297;SDS011;1661;53.572;10.174;2023-12-20T02:45:26;15.50;;;3.73;;
3297;SDS011;1661;53.572;10.174;2023-12-20T02:47:53;18.23;;;3.37;;
3297;SDS011;1661;53.572;10.174;2023-12-20T02:50:20;21.13;;;2.90;;
3297;SDS011;1661;53.572;10.174;2023-12-20T02:52:47;17.83;;;3.70;;
3297;SDS011;1661;53.572;10.174;2023-12-20T02:55:13;14.90;;;3.20;;
3297;SDS011;1661;53.572;10.174;2023-12-20T02:57:42;16.93;;;4.67;;
3297;SDS011;1661;53.572;10.174;2023-12-20T03:00:11;14.40;;;3.10;;
3297;SDS011;1661;53.572;10.174;2023-12-20T03:02:38;9.17;;;3.70;;
3297;SDS011;1661;53.572;10.174;2023-12-20T03:05:06;8.83;;;2.33;;
3297;SDS011;1661;53.572;10.174;2023-12-20T03:07:33;13.57;;;3.60;;
3297;SDS011;1661;53.572;10.174;2023-12-20T03:10:00;13.73;;;3.40;;
3297;SDS011;1661;53.572;10.174;2023-12-20T03:12:26;17.03;;;4.70;;
3297;SDS011;1661;53.572;10.174;2023-12-20T03:14:54;9.40;;;3.30;;
3297;SDS011;1661;53.572;10.174;2023-12-20T03:17:21;11.30;;;3.27;;
3297;SDS011;1661;53.572;10.174;2023-12-20T03:19:48;18.13;;;3.80;;
3297;SDS011;1661;53.572;10.174;2023-12-20T03:22:15;8.00;;;3.20;;
3297;SDS011;1661;53.572;10.174;2023-12-20T03:24:41;10.43;;;3.63;;
3297;SDS011;1661;53.572;10.174;2023-12-20T03:27:08;12.50;;;5.47;;
3297;SDS011;1661;53.572;10.174;2023-12-20T03:29:35;17.83;;;3.70;;
3297;SDS011;1661;53.572;10.174;2023-12-20T03:32:03;17.40;;;5.23;;
3297;SDS011;1661;53.572;10.174;2023-12-20T03:34:30;18.63;;;3.97;;
3297;SDS011;1661;53.572;10.174;2023-12-20T03:36:57;18.67;;;3.97;;
3297;SDS011;1661;53.572;10.174;2023-12-20T03:39:24;13.03;;;4.00;;
3297;SDS011;1661;53.572;10.174;2023-12-20T03:41:50;9.70;;;3.57;;
3297;SDS011;1661;53.572;10.174;2023-12-20T03:44:17;20.83;;;4.20;;
3297;SDS011;1661;53.572;10.174;2023-12-20T03:46:44;10.90;;;3.23;;
3297;SDS011;1661;53.572;10.174;2023-12-20T03:49:12;11.33;;;3.07;;
3297;SDS011;1661;53.572;10.174;2023-12-20T03:51:39;9.23;;;3.60;;
3297;SDS011;1661;53.572;10.174;2023-12-20T03:54:07;12.40;;;3.03;;
3297;SDS011;1661;53.572;10.174;2023-12-20T03:56:33;11.40;;;4.03;;
3297;SDS011;1661;53.572;10.174;2023-12-20T03:59:00;10.70;;;2.40;;
3297;SDS011;1661;53.572;10.174;2023-12-20T04:01:27;8.13;;;2.87;;
3297;SDS011;1661;53.572;10.174;2023-12-20T04:03:54;8.33;;;3.50;;
3297;SDS011;1661;53.572;10.174;2023-12-20T04:06:22;11.83;;;2.60;;
3297;SDS011;1661;53.572;10.174;2023-12-20T04:08:48;31.67;;;3.50;;
3297;SDS011;1661;53.572;10.174;2023-12-20T04:11:15;6.73;;;2.73;;
3297;SDS011;1661;53.572;10.174;2023-12-20T04:13:42;10.70;;;2.23;;
3297;SDS011;1661;53.572;10.174;2023-12-20T04:16:09;11.67;;;3.33;;
3297;SDS011;1661;53.572;10.174;2023-12-20T04:18:35;18.87;;;3.47;;
3297;SDS011;1661;53.572;10.174;2023-12-20T04:21:02;9.10;;;3.80;;
3297;SDS011;1661;53.572;10.174;2023-12-20T04:23:31;12.83;;;3.57;;
3297;SDS011;1661;53.572;10.174;2023-12-20T04:25:57;11.67;;;3.87;;
3297;SDS011;1661;53.572;10.174;2023-12-20T04:28:24;7.40;;;3.50;;
3297;SDS011;1661;53.572;10.174;2023-12-20T04:30:51;16.63;;;2.90;;
3297;SDS011;1661;53.572;10.174;2023-12-20T04:33:18;18.53;;;3.20;;
3297;SDS011;1661;53.572;10.174;2023-12-20T04:35:44;21.97;;;3.33;;
3297;SDS011;1661;53.572;10.174;2023-12-20T04:38:11;9.10;;;3.80;;
3297;SDS011;1661;53.572;10.174;2023-12-20T04:40:39;14.80;;;3.70;;
3297;SDS011;1661;53.572;10.174;2023-12-20T04:43:06;15.83;;;3.20;;
3297;SDS011;1661;53.572;10.174;2023-12-20T04:45:33;15.13;;;3.77;;
3297;SDS011;1661;53.572;10.174;2023-12-20T04:48:01;12.60;;;2.80;;
3297;SDS011;1661;53.572;10.174;2023-12-20T04:50:29;14.40;;;3.40;;
3297;SDS011;1661;53.572;10.174;2023-12-20T04:52:55;20.07;;;4.27;;
3297;SDS011;1661;53.572;10.174;2023-12-20T04:55:22;13.10;;;3.77;;
3297;SDS011;1661;53.572;10.174;2023-12-20T04:57:50;12.27;;;3.50;;
3297;SDS011;1661;53.572;10.174;2023-12-20T05:00:17;20.73;;;3.67;;
3297;SDS011;1661;53.572;10.174;2023-12-20T05:02:44;11.63;;;3.33;;
3297;SDS011;1661;53.572;10.174;2023-12-20T05:05:11;19.13;;;5.10;;
3297;SDS011;1661;53.572;10.174;2023-12-20T05:07:40;13.63;;;3.10;;
3297;SDS011;1661;53.572;10.174;2023-12-20T05:10:07;17.10;;;3.97;;
3297;SDS011;1661;53.572;10.174;2023-12-20T05:12:34;22.17;;;4.63;;
3297;SDS011;1661;53.572;10.174;2023-12-20T05:15:03;17.80;;;4.00;;
3297;SDS011;1661;53.572;10.174;2023-12-20T05:17:30;11.43;;;4.13;;
3297;SDS011;1661;53.572;10.174;2023-12-20T05:19:57;14.43;;;4.60;;
3297;SDS011;1661;53.572;10.174;2023-12-20T05:22:24;14.53;;;4.13;;
3297;SDS011;1661;53.572;10.174;2023-12-20T05:24:52;14.47;;;3.70;;
3297;SDS011;1661;53.572;10.174;2023-12-20T05:27:19;12.50;;;4.23;;
3297;SDS011;1661;53.572;10.174;2023-12-20T05:29:46;13.03;;;4.53;;
3297;SDS011;1661;53.572;10.174;2023-12-20T05:32:14;24.07;;;5.27;;
3297;SDS011;1661;53.572;10.174;2023-12-20T05:34:40;18.30;;;4.63;;
3297;SDS011;1661;53.572;10.174;2023-12-20T05:37:07;10.43;;;3.80;;
3297;SDS011;1661;53.572;10.174;2023-12-20T05:39:34;15.40;;;4.13;;
3297;SDS011;1661;53.572;10.174;2023-12-20T05:42:01;20.93;;;4.70;;
3297;SDS011;1661;53.572;10.174;2023-12-20T05:44:27;18.87;;;6.23;;
3297;SDS011;1661;53.572;10.174;2023-12-20T05:46:54;7.40;;;4.03;;
3297;SDS011;1661;53.572;10.174;2023-12-20T05:49:22;22.37;;;3.67;;
3297;SDS011;1661;53.572;10.174;2023-12-20T05:51:49;17.70;;;3.77;;
3297;SDS011;1661;53.572;10.174;2023-12-20T05:54:16;12.93;;;4.50;;
3297;SDS011;1661;53.572;10.174;2023-12-20T05:56:43;21.63;;;5.33;;
3297;SDS011;1661;53.572;10.174;2023-12-20T05:59:10;18.87;;;3.97;;
3297;SDS011;1661;53.572;10.174;2023-12-20T06:01:37;12.37;;;4.10;;
3297;SDS011;1661;53.572;10.174;2023-12-20T06:04:03;17.67;;;4.73;;
3297;SDS011;1661;53.572;10.174;2023-12-20T06:06:31;25.37;;;5.80;;
3297;SDS011;1661;53.572;10.174;2023-12-20T06:08:58;13.97;;;4.47;;
3297;SDS011;1661;53.572;10.174;2023-12-20T06:11:25;23.60;;;5.90;;
3297;SDS011;1661;53.572;10.174;2023-12-20T06:13:52;20.93;;;5.50;;
3297;SDS011;1661;53.572;10.174;2023-12-20T06:16:19;19.13;;;4.30;;
3297;SDS011;1661;53.572;10.174;2023-12-20T06:18:46;12.87;;;4.80;;
3297;SDS011;1661;53.572;10.174;2023-12-20T06:21:12;10.90;;;4.53;;
3297;SDS011;1661;53.572;10.174;2023-12-20T06:23:40;38.40;;;5.57;;
3297;SDS011;1661;53.572;10.174;2023-12-20T06:26:07;22.50;;;4.70;;
3297;SDS011;1661;53.572;10.174;2023-12-20T06:28:34;17.67;;;4.83;;
3297;SDS011;1661;53.572;10.174;2023-12-20T06:31:01;20.57;;;4.10;;
3297;SDS011;1661;53.572;10.174;2023-12-20T06:33:28;13.77;;;4.17;;
3297;SDS011;1661;53.572;10.174;2023-12-20T06:35:56;16.43;;;4.00;;
3297;SDS011;1661;53.572;10.174;2023-12-20T06:38:22;17.93;;;4.37;;
3297;SDS011;1661;53.572;10.174;2023-12-20T06:40:50;27.50;;;4.23;;
3297;SDS011;1661;53.572;10.174;2023-12-20T06:43:17;29.43;;;5.97;;
3297;SDS011;1661;53.572;10.174;2023-12-20T06:45:44;17.40;;;5.00;;
3297;SDS011;1661;53.572;10.174;2023-12-20T06:48:11;24.67;;;5.10;;
3297;SDS011;1661;53.572;10.174;2023-12-20T06:50:38;10.73;;;4.27;;
3297;SDS011;1661;53.572;10.174;2023-12-20T06:53:05;25.87;;;5.30;;
3297;SDS011;1661;53.572;10.174;2023-12-20T06:55:33;16.40;;;4.80;;
3297;SDS011;1661;53.572;10.174;2023-12-20T06:58:01;34.00;;;6.00;;
3297;SDS011;1661;53.572;10.174;2023-12-20T07:00:28;23.10;;;4.93;;
3297;SDS011;1661;53.572;10.174;2023-12-20T07:02:55;23.53;;;4.60;;
3297;SDS011;1661;53.572;10.174;2023-12-20T07:05:22;20.03;;;3.80;;
3297;SDS011;1661;53.572;10.174;2023-12-20T07:07:48;12.47;;;3.97;;
3297;SDS011;1661;53.572;10.174;2023-12-20T07:10:15;18.77;;;4.00;;
3297;SDS011;1661;53.572;10.174;2023-12-20T07:12:42;15.63;;;3.93;;
3297;SDS011;1661;53.572;10.174;2023-12-20T07:15:10;19.57;;;5.23;;
3297;SDS011;1661;53.572;10.174;2023-12-20T07:17:37;21.60;;;4.87;;
3297;SDS011;1661;53.572;10.174;2023-12-20T07:20:06;23.60;;;4.07;;
3297;SDS011;1661;53.572;10.174;2023-12-20T07:22:35;7.10;;;3.83;;
3297;SDS011;1661;53.572;10.174;2023-12-20T07:25:03;22.20;;;5.80;;
3297;SDS011;1661;53.572;10.174;2023-12-20T07:27:30;17.43;;;4.53;;
3297;SDS011;1661;53.572;10.174;2023-12-20T07:29:56;19.70;;;4.97;;
3297;SDS011;1661;53.572;10.174;2023-12-20T07:32:25;30.57;;;5.20;;
3297;SDS011;1661;53.572;10.174;2023-12-20T07:34:52;16.67;;;4.57;;
3297;SDS011;1661;53.572;10.174;2023-12-20T07:37:19;28.17;;;4.77;;
3297;SDS011;1661;53.572;10.174;2023-12-20T07:39:46;15.97;;;4.00;;
3297;SDS011;1661;53.572;10.174;2023-12-20T07:42:13;14.20;;;4.50;;
3297;SDS011;1661;53.572;10.174;2023-12-20T07:44:40;11.60;;;4.40;;
3297;SDS011;1661;53.572;10.174;2023-12-20T07:47:07;30.33;;;5.13;;
3297;SDS011;1661;53.572;10.174;2023-12-20T07:49:35;18.70;;;4.43;;
3297;SDS011;1661;53.572;10.174;2023-12-20T07:52:02;17.17;;;4.13;;
3297;SDS011;1661;53.572;10.174;2023-12-20T07:54:28;21.93;;;4.50;;
3297;SDS011;1661;53.572;10.174;2023-12-20T07:56:56;18.17;;;4.20;;
3297;SDS011;1661;53.572;10.174;2023-12-20T07:59:24;16.57;;;4.13;;
3297;SDS011;1661;53.572;10.174;2023-12-20T08:01:50;29.97;;;5.40;;
3297;SDS011;1661;53.572;10.174;2023-12-20T08:04:17;18.77;;;4.60;;
3297;SDS011;1661;53.572;10.174;2023-12-20T08:06:45;14.87;;;6.67;;
3297;SDS011;1661;53.572;10.174;2023-12-20T08:09:12;35.67;;;6.83;;
3297;SDS011;1661;53.572;10.174;2023-12-20T08:11:39;28.23;;;5.83;;
3297;SDS011;1661;53.572;10.174;2023-12-20T08:14:05;21.73;;;4.27;;
3297;SDS011;1661;53.572;10.174;2023-12-20T08:16:32;21.83;;;4.93;;
3297;SDS011;1661;53.572;10.174;2023-12-20T08:18:59;32.20;;;5.77;;
3297;SDS011;1661;53.572;10.174;2023-12-20T08:21:25;25.80;;;5.60;;
3297;SDS011;1661;53.572;10.174;2023-12-20T08:23:54;26.77;;;3.77;;
3297;SDS011;1661;53.572;10.174;2023-12-20T08:26:20;11.27;;;3.60;;
3297;SDS011;1661;53.572;10.174;2023-12-20T08:28:47;22.57;;;4.97;;
3297;SDS011;1661;53.572;10.174;2023-12-20T08:31:14;17.43;;;5.60;;
3297;SDS011;1661;53.572;10.174;2023-12-20T08:36:09;26.80;;;5.10;;
3297;SDS011;1661;53.572;10.174;2023-12-20T08:38:36;18.63;;;5.90;;
3297;SDS011;1661;53.572;10.174;2023-12-20T08:41:04;21.57;;;5.07;;
3297;SDS011;1661;53.572;10.174;2023-12-20T08:43:31;16.03;;;4.40;;
3297;SDS011;1661;53.572;10.174;2023-12-20T08:46:00;10.80;;;3.27;;
3297;SDS011;1661;53.572;10.174;2023-12-20T08:48:27;27.93;;;6.90;;
3297;SDS011;1661;53.572;10.174;2023-12-20T08:50:54;23.07;;;4.30;;
3297;SDS011;1661;53.572;10.174;2023-12-20T08:53:21;14.40;;;4.57;;
3297;SDS011;1661;53.572;10.174;2023-12-20T08:55:48;21.50;;;5.63;;
3297;SDS011;1661;53.572;10.174;2023-12-20T08:58:16;28.70;;;5.87;;
3297;SDS011;1661;53.572;10.174;2023-12-20T09:00:43;24.30;;;5.33;;
3297;SDS011;1661;53.572;10.174;2023-12-20T09:03:09;18.57;;;5.40;;
3297;SDS011;1661;53.572;10.174;2023-12-20T09:05:37;15.93;;;3.60;;
3297;SDS011;1661;53.572;10.174;2023-12-20T09:08:04;29.07;;;6.17;;
3297;SDS011;1661;53.572;10.174;2023-12-20T09:10:32;23.20;;;5.53;;
3297;SDS011;1661;53.572;10.174;2023-12-20T09:12:59;22.43;;;5.50;;
3297;SDS011;1661;53.572;10.174;2023-12-20T09:15:27;11.83;;;4.17;;
3297;SDS011;1661;53.572;10.174;2023-12-20T09:17:55;9.37;;;4.77;;
3297;SDS011;1661;53.572;10.174;2023-12-20T09:20:22;13.17;;;3.67;;
3297;SDS011;1661;53.572;10.174;2023-12-20T09:22:49;19.73;;;3.70;;
3297;SDS011;1661;53.572;10.174;2023-12-20T09:25:16;16.20;;;4.97;;
3297;SDS011;1661;53.572;10.174;2023-12-20T09:27:43;6.33;;;3.50;;
3297;SDS011;1661;53.572;10.174;2023-12-20T09:30:09;7.10;;;3.23;;
3297;SDS011;1661;53.572;10.174;2023-12-20T09:32:38;13.60;;;2.93;;
3297;SDS011;1661;53.572;10.174;2023-12-20T09:35:05;8.60;;;2.53;;
3297;SDS011;1661;53.572;10.174;2023-12-20T09:37:33;6.33;;;4.40;;
3297;SDS011;1661;53.572;10.174;2023-12-20T09:40:00;15.67;;;3.13;;
3297;SDS011;1661;53.572;10.174;2023-12-20T09:42:29;12.50;;;2.83;;
3297;SDS011;1661;53.572;10.174;2023-12-20T09:45:04;4.00;;;2.20;;
3297;SDS011;1661;53.572;10.174;2023-12-20T09:47:34;6.47;;;3.00;;
3297;SDS011;1661;53.572;10.174;2023-12-20T09:50:03;8.87;;;2.63;;
3297;SDS011;1661;53.572;10.174;2023-12-20T09:52:31;5.10;;;1.90;;
3297;SDS011;1661;53.572;10.174;2023-12-20T09:54:58;7.60;;;2.20;;
3297;SDS011;1661;53.572;10.174;2023-12-20T09:57:29;7.13;;;1.67;;
3297;SDS011;1661;53.572;10.174;2023-12-20T09:59:56;2.70;;;1.67;;
3297;SDS011;1661;53.572;10.174;2023-12-20T10:02:23;11.77;;;1.50;;
3297;SDS011;1661;53.572;10.174;2023-12-20T10:04:52;4.90;;;1.30;;
3297;SDS011;1661;53.572;10.174;2023-12-20T10:07:21;10.83;;;2.50;;
3297;SDS011;1661;53.572;10.174;2023-12-20T10:09:48;4.30;;;1.50;;
3297;SDS011;1661;53.572;10.174;2023-12-20T10:12:17;3.77;;;1.37;;
3297;SDS011;1661;53.572;10.174;2023-12-20T10:14:44;4.63;;;1.63;;
3297;SDS011;1661;53.572;10.174;2023-12-20T10:17:10;2.70;;;1.03;;
3297;SDS011;1661;53.572;10.174;2023-12-20T10:19:37;5.03;;;1.27;;
3297;SDS011;1661;53.572;10.174;2023-12-20T10:22:04;4.47;;;2.20;;
3297;SDS011;1661;53.572;10.174;2023-12-20T10:24:32;7.20;;;1.40;;
3297;SDS011;1661;53.572;10.174;2023-12-20T10:27:02;4.23;;;1.13;;
3297;SDS011;1661;53.572;10.174;2023-12-20T10:29:31;5.47;;;1.67;;
3297;SDS011;1661;53.572;10.174;2023-12-20T10:31:59;5.93;;;1.70;;
3297;SDS011;1661;53.572;10.174;2023-12-20T10:34:26;7.90;;;2.50;;
3297;SDS011;1661;53.572;10.174;2023-12-20T10:36:53;3.33;;;1.30;;
3297;SDS011;1661;53.572;10.174;2023-12-20T10:39:20;9.83;;;1.80;;
3297;SDS011;1661;53.572;10.174;2023-12-20T10:41:48;8.30;;;1.93;;
3297;SDS011;1661;53.572;10.174;2023-12-20T10:44:15;5.43;;;1.57;;
3297;SDS011;1661;53.572;10.174;2023-12-20T10:46:43;5.10;;;1.90;;
3297;SDS011;1661;53.572;10.174;2023-12-20T10:49:16;7.23;;;1.47;;
3297;SDS011;1661;53.572;10.174;2023-12-20T10:51:45;3.93;;;1.50;;
3297;SDS011;1661;53.572;10.174;2023-12-20T10:54:13;1.70;;;1.20;;
3297;SDS011;1661;53.572;10.174;2023-12-20T10:56:40;3.97;;;1.43;;
3297;SDS011;1661;53.572;10.174;2023-12-20T10:59:09;6.83;;;1.53;;
3297;SDS011;1661;53.572;10.174;2023-12-20T11:01:38;11.53;;;1.70;;
3297;SDS011;1661;53.572;10.174;2023-12-20T11:04:08;6.93;;;2.07;;
3297;SDS011;1661;53.572;10.174;2023-12-20T11:06:40;9.90;;;1.50;;
3297;SDS011;1661;53.572;10.174;2023-12-20T11:09:14;7.40;;;1.63;;
3297;SDS011;1661;53.572;10.174;2023-12-20T11:11:52;5.27;;;1.57;;
3297;SDS011;1661;53.572;10.174;2023-12-20T11:14:27;9.63;;;1.90;;
3297;SDS011;1661;53.572;10.174;2023-12-20T11:17:07;10.20;;;2.70;;
3297;SDS011;1661;53.572;10.174;2023-12-20T11:19:36;12.27;;;2.33;;
3297;SDS011;1661;53.572;10.174;2023-12-20T11:22:04;7.50;;;2.50;;
3297;SDS011;1661;53.572;10.174;2023-12-20T11:24:32;8.23;;;1.90;;
3297;SDS011;1661;53.572;10.174;2023-12-20T11:27:03;10.00;;;2.67;;
3297;SDS011;1661;53.572;10.174;2023-12-20T11:29:34;10.27;;;2.10;;
3297;SDS011;1661;53.572;10.174;2023-12-20T11:32:02;17.30;;;2.10;;
3297;SDS011;1661;53.572;10.174;2023-12-20T11:34:31;10.37;;;2.10;;
3297;SDS011;1661;53.572;10.174;2023-12-20T11:36:59;12.07;;;2.90;;
3297;SDS011;1661;53.572;10.174;2023-12-20T11:39:27;1.70;;;1.43;;
3297;SDS011;1661;53.572;10.174;2023-12-20T11:41:55;3.60;;;2.00;;
3297;SDS011;1661;53.572;10.174;2023-12-20T11:44:23;4.00;;;1.73;;
3297;SDS011;1661;53.572;10.174;2023-12-20T11:46:52;3.50;;;2.10;;
3297;SDS011;1661;53.572;10.174;2023-12-20T11:49:23;2.50;;;1.60;;
3297;SDS011;1661;53.572;10.174;2023-12-20T11:51:50;3.60;;;1.83;;
3297;SDS011;1661;53.572;10.174;2023-12-20T11:54:17;5.50;;;2.07;;
3297;SDS011;1661;53.572;10.174;2023-12-20T11:56:44;6.77;;;1.80;;
3297;SDS011;1661;53.572;10.174;2023-12-20T11:59:12;4.97;;;1.60;;
3297;SDS011;1661;53.572;10.174;2023-12-20T12:01:39;6.60;;;1.67;;
3297;SDS011;1661;53.572;10.174;2023-12-20T12:04:07;11.63;;;2.33;;
3297;SDS011;1661;53.572;10.174;2023-12-20T12:06:35;9.83;;;2.57;;
3297;SDS011;1661;53.572;10.174;2023-12-20T12:09:02;12.93;;;2.50;;
3297;SDS011;1661;53.572;10.174;2023-12-20T12:11:29;16.13;;;3.03;;
3297;SDS011;1661;53.572;10.174;2023-12-20T12:13:56;7.50;;;2.60;;
3297;SDS011;1661;53.572;10.174;2023-12-20T12:16:23;11.60;;;3.00;;
3297;SDS011;1661;53.572;10.174;2023-12-20T12:18:57;10.70;;;2.57;;
3297;SDS011;1661;53.572;10.174;2023-12-20T12:21:25;16.13;;;2.40;;
3297;SDS011;1661;53.572;10.174;2023-12-20T12:23:52;14.50;;;3.70;;
3297;SDS011;1661;53.572;10.174;2023-12-20T12:26:19;8.30;;;2.63;;
3297;SDS011;1661;53.572;10.174;2023-12-20T12:28:45;9.10;;;3.47;;
3297;SDS011;1661;53.572;10.174;2023-12-20T12:31:13;8.80;;;2.90;;
3297;SDS011;1661;53.572;10.174;2023-12-20T12:33:41;12.97;;;2.70;;
3297;SDS011;1661;53.572;10.174;2023-12-20T12:36:09;10.00;;;2.47;;
3297;SDS011;1661;53.572;10.174;2023-12-20T12:38:37;12.03;;;3.80;;
3297;SDS011;1661;53.572;10.174;2023-12-20T12:41:04;18.80;;;4.10;;
3297;SDS011;1661;53.572;10.174;2023-12-20T12:43:32;14.60;;;4.03;;
3297;SDS011;1661;53.572;10.174;2023-12-20T12:45:59;21.90;;;5.83;;
3297;SDS011;1661;53.572;10.174;2023-12-20T12:48:26;23.60;;;4.23;;
3297;SDS011;1661;53.572;10.174;2023-12-20T12:50:54;15.53;;;3.93;;
3297;SDS011;1661;53.572;10.174;2023-12-20T12:53:24;9.50;;;4.70;;
3297;SDS011;1661;53.572;10.174;2023-12-20T12:55:53;25.00;;;4.43;;
3297;SDS011;1661;53.572;10.174;2023-12-20T12:58:20;12.13;;;2.93;;
3297;SDS011;1661;53.572;10.174;2023-12-20T13:00:47;20.87;;;4.77;;
3297;SDS011;1661;53.572;10.174;2023-12-20T13:03:14;20.70;;;4.40;;
3297;SDS011;1661;53.572;10.174;2023-12-20T13:05:41;11.40;;;3.63;;
3297;SDS011;1661;53.572;10.174;2023-12-20T13:08:08;12.50;;;3.90;;
3297;SDS011;1661;53.572;10.174;2023-12-20T13:10:37;18.97;;;4.03;;
3297;SDS011;1661;53.572;10.174;2023-12-20T13:13:05;13.50;;;3.90;;
3297;SDS011;1661;53.572;10.174;2023-12-20T13:15:32;14.83;;;4.03;;
3297;SDS011;1661;53.572;10.174;2023-12-20T13:17:59;24.70;;;4.90;;
3297;SDS011;1661;53.572;10.174;2023-12-20T13:20:26;11.77;;;3.67;;
3297;SDS011;1661;53.572;10.174;2023-12-20T13:22:53;13.07;;;3.80;;
3297;SDS011;1661;53.572;10.174;2023-12-20T13:25:20;15.33;;;3.90;;
3297;SDS011;1661;53.572;10.174;2023-12-20T13:27:46;30.70;;;4.80;;
3297;SDS011;1661;53.572;10.174;2023-12-20T13:30:15;22.37;;;4.27;;
3297;SDS011;1661;53.572;10.174;2023-12-20T13:32:42;9.47;;;3.73;;
3297;SDS011;1661;53.572;10.174;2023-12-20T13:35:09;10.87;;;3.30;;
3297;SDS011;1661;53.572;10.174;2023-12-20T13:37:36;24.37;;;6.10;;
3297;SDS011;1661;53.572;10.174;2023-12-20T13:40:03;20.27;;;4.93;;
3297;SDS011;1661;53.572;10.174;2023-12-20T13:42:31;18.47;;;4.80;;
3297;SDS011;1661;53.572;10.174;2023-12-20T13:44:57;21.03;;;4.50;;
3297;SDS011;1661;53.572;10.174;2023-12-20T13:47:26;13.60;;;4.50;;
3297;SDS011;1661;53.572;10.174;2023-12-20T13:49:52;16.50;;;4.47;;
3297;SDS011;1661;53.572;10.174;2023-12-20T13:52:21;12.63;;;5.10;;
3297;SDS011;1661;53.572;10.174;2023-12-20T13:54:48;23.97;;;5.93;;
3297;SDS011;1661;53.572;10.174;2023-12-20T13:57:15;19.73;;;5.67;;
3297;SDS011;1661;53.572;10.174;2023-12-20T13:59:41;29.77;;;5.43;;
3297;SDS011;1661;53.572;10.174;2023-12-20T14:02:08;17.80;;;4.93;;
3297;SDS011;1661;53.572;10.174;2023-12-20T14:04:38;17.17;;;5.50;;
3297;SDS011;1661;53.572;10.174;2023-12-20T14:07:06;27.90;;;6.13;;
3297;SDS011;1661;53.572;10.174;2023-12-20T14:09:34;25.03;;;5.90;;
3297;SDS011;1661;53.572;10.174;2023-12-20T14:12:01;25.93;;;6.47;;
3297;SDS011;1661;53.572;10.174;2023-12-20T14:14:28;27.10;;;6.50;;
3297;SDS011;1661;53.572;10.174;2023-12-20T14:16:55;19.23;;;8.20;;
3297;SDS011;1661;53.572;10.174;2023-12-20T14:19:22;24.33;;;7.23;;
3297;SDS011;1661;53.572;10.174;2023-12-20T14:21:50;31.67;;;6.60;;
3297;SDS011;1661;53.572;10.174;2023-12-20T14:24:16;21.57;;;6.63;;
3297;SDS011;1661;53.572;10.174;2023-12-20T14:26:43;24.93;;;6.60;;
3297;SDS011;1661;53.572;10.174;2023-12-20T14:29:10;20.93;;;6.27;;
3297;SDS011;1661;53.572;10.174;2023-12-20T14:31:36;18.23;;;4.60;;
3297;SDS011;1661;53.572;10.174;2023-12-20T14:34:05;18.47;;;6.13;;
3297;SDS011;1661;53.572;10.174;2023-12-20T14:36:31;24.77;;;8.10;;
3297;SDS011;1661;53.572;10.174;2023-12-20T14:39:00;30.87;;;7.63;;
3297;SDS011;1661;53.572;10.174;2023-12-20T14:41:28;36.90;;;7.80;;
3297;SDS011;1661;53.572;10.174;2023-12-20T14:43:54;29.83;;;7.90;;
3297;SDS011;1661;53.572;10.174;2023-12-20T14:46:21;23.67;;;6.97;;
3297;SDS011;1661;53.572;10.174;2023-12-20T14:48:48;20.00;;;7.20;;
3297;SDS011;1661;53.572;10.174;2023-12-20T14:51:15;21.87;;;6.27;;
3297;SDS011;1661;53.572;10.174;2023-12-20T14:53:42;24.27;;;8.40;;